Time;durP1;ratioP1;P1;durP2;ratioP2;P2;SDS_P1;SDS_P2;PMS_P1;PMS_P2;Temp;Humidity;BMP_temperature;BMP_pressure;BME280_temperature;BME280_humidity;BME280_pressure;Samples;Min_cycle;Max_cycle;Signal;HPM_P1;HPM_P2
2022/07/31 00:00:09;;;;;;;388.47;201.53;;;;;;;;;;5039626;28;20218;-52
2022/07/31 00:02:36;;;;;;;348.83;181.17;;;;;;;;;;5046162;28;20231;-52
2022/07/31 00:05:02;;;;;;;374.63;198.13;;;;;;;;;;5027853;28;20181;-52
2022/07/31 00:07:28;;;;;;;387.77;197.50;;;;;;;;;;5042995;28;20204;-52
2022/07/31 00:09:55;;;;;;;373.37;193.40;;;;;;;;;;5026718;28;20504;-52
2022/07/31 00:12:21;;;;;;;400.13;208.63;;;;;;;;;;5041593;28;20273;-52
2022/07/31 00:14:47;;;;;;;389.87;201.47;;;;;;;;;;5043091;28;20226;-52
2022/07/31 00:17:13;;;;;;;369.73;193.37;;;;;;;;;;5040335;28;20686;-52
2022/07/31 00:19:40;;;;;;;376.60;196.27;;;;;;;;;;5041858;28;20203;-52
2022/07/31 00:22:06;;;;;;;358.17;188.67;;;;;;;;;;5041805;28;20284;-51
2022/07/31 00:24:32;;;;;;;366.60;189.50;;;;;;;;;;5048942;28;20346;-52
2022/07/31 00:26:58;;;;;;;359.27;185.93;;;;;;;;;;5042963;28;22628;-51
2022/07/31 00:29:24;;;;;;;370.63;193.87;;;;;;;;;;5042478;28;20219;-52
2022/07/31 00:31:50;;;;;;;396.07;206.30;;;;;;;;;;5044050;28;20194;-52
2022/07/31 00:34:16;;;;;;;364.30;190.03;;;;;;;;;;5043613;28;20179;-51
2022/07/31 00:36:42;;;;;;;363.23;186.97;;;;;;;;;;5041588;28;20224;-53
2022/07/31 00:39:11;;;;;;;373.90;196.77;;;;;;;;;;5041735;28;20219;-51
2022/07/31 00:41:38;;;;;;;366.50;190.23;;;;;;;;;;5043758;28;20219;-52
2022/07/31 00:44:04;;;;;;;396.10;205.40;;;;;;;;;;5040435;28;20192;-52
2022/07/31 00:46:30;;;;;;;394.70;204.67;;;;;;;;;;5037702;28;20180;-52
2022/07/31 00:48:56;;;;;;;393.90;196.20;;;;;;;;;;5037611;28;20231;-53
2022/07/31 00:51:22;;;;;;;401.50;202.67;;;;;;;;;;5042594;28;20220;-52
2022/07/31 00:53:48;;;;;;;367.20;188.40;;;;;;;;;;5041890;28;20794;-52
2022/07/31 00:56:14;;;;;;;397.07;196.63;;;;;;;;;;5041093;28;20936;-52
2022/07/31 00:58:40;;;;;;;446.40;215.73;;;;;;;;;;5032934;28;20227;-53
2022/07/31 01:01:06;;;;;;;380.27;192.27;;;;;;;;;;5039064;28;20641;-52
2022/07/31 01:03:32;;;;;;;358.20;185.00;;;;;;;;;;5036337;28;20243;-51
2022/07/31 01:05:57;;;;;;;334.27;177.03;;;;;;;;;;5042507;28;20219;-52
2022/07/31 01:08:23;;;;;;;365.67;191.73;;;;;;;;;;5040490;28;20567;-51
2022/07/31 01:10:53;;;;;;;369.13;191.30;;;;;;;;;;5043948;28;20184;-51
2022/07/31 01:13:22;;;;;;;379.47;198.17;;;;;;;;;;5043685;28;20187;-52
2022/07/31 01:15:48;;;;;;;495.13;258.13;;;;;;;;;;5038175;28;20532;-52
2022/07/31 01:18:16;;;;;;;394.80;205.20;;;;;;;;;;5041512;28;20219;-53
2022/07/31 01:20:43;;;;;;;371.87;194.93;;;;;;;;;;5029134;28;20334;-52
2022/07/31 01:23:30;;;;;;;388.97;195.03;;;;;;;;;;5044081;28;20230;-53
2022/07/31 01:26:05;;;;;;;371.73;196.87;;;;;;;;;;5038071;28;20181;-53
2022/07/31 01:28:50;;;;;;;357.47;188.07;;;;;;;;;;5040077;28;20473;-53
2022/07/31 01:31:19;;;;;;;391.17;202.20;;;;;;;;;;5044919;28;20212;-52
2022/07/31 01:33:49;;;;;;;360.50;189.57;;;;;;;;;;5039279;28;20568;-52
2022/07/31 01:36:19;;;;;;;385.20;201.13;;;;;;;;;;5043584;28;20525;-52
2022/07/31 01:38:48;;;;;;;348.57;178.77;;;;;;;;;;5041767;28;20550;-52
2022/07/31 01:41:16;;;;;;;369.87;192.50;;;;;;;;;;5043094;28;20219;-51
2022/07/31 01:43:43;;;;;;;401.03;211.13;;;;;;;;;;5035862;28;20187;-51
2022/07/31 01:46:14;;;;;;;389.27;206.97;;;;;;;;;;5041833;28;20223;-53
2022/07/31 01:48:41;;;;;;;372.37;195.83;;;;;;;;;;5040636;28;20610;-52
2022/07/31 01:51:07;;;;;;;408.97;216.83;;;;;;;;;;5036813;28;20552;-51
2022/07/31 01:53:35;;;;;;;372.70;195.67;;;;;;;;;;5042728;28;20428;-52
2022/07/31 01:56:01;;;;;;;402.10;211.80;;;;;;;;;;5042156;28;20176;-52
2022/07/31 01:58:29;;;;;;;374.57;193.10;;;;;;;;;;5040170;28;20195;-51
2022/07/31 02:00:57;;;;;;;357.03;183.13;;;;;;;;;;5041846;28;20679;-51
2022/07/31 02:03:24;;;;;;;382.23;195.67;;;;;;;;;;5043775;28;20219;-51
2022/07/31 02:05:50;;;;;;;375.97;192.83;;;;;;;;;;5035803;28;20220;-53
2022/07/31 02:08:17;;;;;;;365.73;182.83;;;;;;;;;;5038801;28;20322;-52
2022/07/31 02:10:44;;;;;;;341.80;175.43;;;;;;;;;;5037286;28;20198;-52
2022/07/31 02:13:12;;;;;;;384.97;196.83;;;;;;;;;;5036986;28;20221;-51
2022/07/31 02:15:39;;;;;;;412.73;213.57;;;;;;;;;;5039381;28;20223;-52
2022/07/31 02:18:05;;;;;;;369.83;190.27;;;;;;;;;;5040301;28;20216;-53
2022/07/31 02:20:32;;;;;;;352.67;179.60;;;;;;;;;;5042287;28;20226;-52
2022/07/31 02:23:00;;;;;;;384.37;198.47;;;;;;;;;;5043368;28;20187;-52
2022/07/31 02:25:26;;;;;;;368.57;186.00;;;;;;;;;;5038490;28;20616;-53
2022/07/31 02:27:53;;;;;;;400.93;206.97;;;;;;;;;;5035749;28;20219;-53
2022/07/31 02:30:19;;;;;;;402.93;202.93;;;;;;;;;;5034528;28;20219;-51
2022/07/31 02:32:46;;;;;;;393.13;196.87;;;;;;;;;;5037409;28;20227;-52
2022/07/31 02:35:13;;;;;;;399.30;199.63;;;;;;;;;;5037161;28;20868;-52
2022/07/31 02:37:39;;;;;;;407.47;206.97;;;;;;;;;;5036291;28;20532;-53
2022/07/31 02:40:06;;;;;;;404.37;206.17;;;;;;;;;;5037216;28;20560;-51
2022/07/31 02:42:32;;;;;;;373.83;188.50;;;;;;;;;;5037173;28;20675;-51
2022/07/31 02:44:58;;;;;;;355.30;179.77;;;;;;;;;;5030932;28;20648;-52
2022/07/31 02:49:57;;;;;;;378.13;179.50;;;;;;;;;;4977677;28;20214;-54
2022/07/31 02:52:23;;;;;;;356.43;168.27;;;;;;;;;;4979190;28;20565;-54
2022/07/31 02:54:50;;;;;;;337.60;161.33;;;;;;;;;;4981725;28;20233;-54
2022/07/31 02:57:16;;;;;;;374.77;179.33;;;;;;;;;;4980077;28;20235;-54
2022/07/31 02:59:42;;;;;;;368.07;174.40;;;;;;;;;;4975120;28;20245;-54
2022/07/31 03:02:09;;;;;;;383.63;185.60;;;;;;;;;;4977629;28;20192;-54
2022/07/31 03:04:35;;;;;;;393.43;183.73;;;;;;;;;;4977912;28;20185;-54
2022/07/31 03:07:01;;;;;;;341.40;162.33;;;;;;;;;;4977915;28;20377;-54
2022/07/31 03:09:29;;;;;;;392.93;185.17;;;;;;;;;;4978578;28;20678;-54
2022/07/31 03:11:55;;;;;;;339.33;164.27;;;;;;;;;;4981248;28;20221;-54
2022/07/31 03:14:21;;;;;;;395.07;190.07;;;;;;;;;;4965310;28;20228;-54
2022/07/31 03:16:48;;;;;;;376.80;179.93;;;;;;;;;;4978979;28;20650;-54
2022/07/31 03:19:14;;;;;;;378.00;179.77;;;;;;;;;;4983867;28;20237;-54
2022/07/31 03:21:40;;;;;;;342.73;164.83;;;;;;;;;;4983796;28;20224;-54
2022/07/31 03:24:07;;;;;;;367.40;174.80;;;;;;;;;;4979270;28;20228;-54
2022/07/31 03:26:33;;;;;;;360.37;171.53;;;;;;;;;;4978700;28;20682;-54
2022/07/31 03:28:59;;;;;;;334.13;159.63;;;;;;;;;;4983920;28;20269;-54
2022/07/31 03:31:26;;;;;;;357.83;170.17;;;;;;;;;;4981723;28;20220;-54
2022/07/31 03:33:52;;;;;;;345.97;165.33;;;;;;;;;;4981550;28;20230;-55
2022/07/31 03:36:18;;;;;;;347.57;166.87;;;;;;;;;;4980244;28;20229;-54
2022/07/31 03:38:44;;;;;;;347.07;169.50;;;;;;;;;;4981675;28;20617;-54
2022/07/31 03:41:10;;;;;;;362.70;176.10;;;;;;;;;;4978126;28;20709;-54
2022/07/31 03:43:36;;;;;;;356.07;174.43;;;;;;;;;;4981090;28;20193;-54
2022/07/31 03:46:03;;;;;;;367.60;180.87;;;;;;;;;;4981519;28;20739;-54
2022/07/31 03:48:29;;;;;;;351.67;172.30;;;;;;;;;;4990285;28;20597;-54
2022/07/31 03:50:56;;;;;;;327.10;162.67;;;;;;;;;;5003532;28;20221;-54
2022/07/31 03:53:23;;;;;;;369.40;181.43;;;;;;;;;;4997211;28;20593;-54
2022/07/31 03:55:49;;;;;;;345.83;168.17;;;;;;;;;;5003873;28;20235;-54
2022/07/31 03:58:17;;;;;;;373.27;183.10;;;;;;;;;;5002342;28;20229;-54
2022/07/31 04:00:43;;;;;;;375.40;182.77;;;;;;;;;;4996579;28;20224;-54
2022/07/31 04:03:10;;;;;;;381.63;186.80;;;;;;;;;;4997791;28;20228;-54
2022/07/31 04:05:37;;;;;;;370.90;180.07;;;;;;;;;;4998062;28;20235;-54
2022/07/31 04:08:03;;;;;;;370.47;180.53;;;;;;;;;;4997536;28;20213;-54
2022/07/31 04:10:29;;;;;;;360.50;178.30;;;;;;;;;;5004719;28;20229;-54
2022/07/31 04:12:55;;;;;;;366.87;178.40;;;;;;;;;;4997907;28;20810;-54
2022/07/31 04:15:21;;;;;;;378.60;186.53;;;;;;;;;;4998219;28;20712;-54
2022/07/31 04:17:47;;;;;;;363.37;181.40;;;;;;;;;;4996218;28;20232;-54
2022/07/31 04:20:13;;;;;;;361.93;178.17;;;;;;;;;;4997987;28;20312;-54
2022/07/31 04:22:39;;;;;;;346.73;169.97;;;;;;;;;;5001046;28;20189;-54
2022/07/31 04:25:05;;;;;;;349.43;169.63;;;;;;;;;;5000124;28;20427;-54
2022/07/31 04:27:31;;;;;;;388.83;185.47;;;;;;;;;;4997049;28;20236;-54
2022/07/31 04:29:57;;;;;;;408.20;195.80;;;;;;;;;;4994712;28;20560;-54
2022/07/31 04:32:24;;;;;;;361.30;173.43;;;;;;;;;;5002804;28;20231;-54
2022/07/31 04:34:50;;;;;;;336.40;165.37;;;;;;;;;;5004778;28;20556;-54
2022/07/31 04:37:16;;;;;;;341.63;163.30;;;;;;;;;;5002320;28;20778;-54
2022/07/31 04:39:42;;;;;;;376.00;181.60;;;;;;;;;;5000138;28;20231;-54
2022/07/31 04:42:08;;;;;;;379.50;185.60;;;;;;;;;;5000735;28;20217;-54
2022/07/31 04:44:34;;;;;;;348.70;171.60;;;;;;;;;;5001085;28;20221;-54
2022/07/31 04:47:04;;;;;;;399.80;195.80;;;;;;;;;;4996218;28;21319;-54
2022/07/31 04:49:31;;;;;;;339.43;167.13;;;;;;;;;;5003317;28;20232;-54
2022/07/31 04:51:57;;;;;;;368.03;182.47;;;;;;;;;;5002049;28;20229;-54
2022/07/31 04:54:23;;;;;;;384.60;187.17;;;;;;;;;;5001937;28;20684;-54
2022/07/31 04:56:49;;;;;;;346.90;169.57;;;;;;;;;;4999795;28;20228;-54
2022/07/31 04:59:16;;;;;;;389.90;187.53;;;;;;;;;;5002758;28;20237;-54
2022/07/31 05:01:43;;;;;;;363.07;173.87;;;;;;;;;;4999116;28;20847;-54
2022/07/31 05:04:09;;;;;;;370.90;176.97;;;;;;;;;;5001824;28;20225;-54
2022/07/31 05:06:36;;;;;;;354.90;170.83;;;;;;;;;;5001957;28;20236;-54
2022/07/31 05:09:02;;;;;;;381.87;185.53;;;;;;;;;;4990146;28;20232;-54
2022/07/31 05:11:28;;;;;;;367.57;178.07;;;;;;;;;;5005196;28;20225;-54
2022/07/31 05:13:56;;;;;;;372.27;181.77;;;;;;;;;;4997048;28;20181;-54
2022/07/31 05:16:22;;;;;;;362.53;181.83;;;;;;;;;;4999229;28;20586;-54
2022/07/31 05:18:50;;;;;;;373.77;182.63;;;;;;;;;;4995443;28;20252;-54
2022/07/31 05:21:16;;;;;;;382.03;187.60;;;;;;;;;;5000900;28;20237;-54
2022/07/31 05:23:43;;;;;;;366.40;180.93;;;;;;;;;;5002541;28;20279;-54
2022/07/31 05:26:09;;;;;;;354.03;176.13;;;;;;;;;;4998069;28;20769;-54
2022/07/31 05:28:35;;;;;;;354.73;177.97;;;;;;;;;;4997968;28;22151;-54
2022/07/31 05:31:01;;;;;;;383.60;191.13;;;;;;;;;;4996351;28;20414;-54
2022/07/31 05:33:27;;;;;;;373.03;186.37;;;;;;;;;;4999653;28;20299;-54
2022/07/31 05:35:54;;;;;;;371.47;188.17;;;;;;;;;;5002582;28;20228;-54
2022/07/31 05:38:20;;;;;;;369.53;183.90;;;;;;;;;;4985444;28;20232;-54
2022/07/31 05:40:46;;;;;;;345.00;173.97;;;;;;;;;;5001944;28;20198;-55
2022/07/31 05:43:12;;;;;;;377.17;182.13;;;;;;;;;;4988817;28;20225;-55
2022/07/31 05:45:38;;;;;;;444.37;201.07;;;;;;;;;;4996827;28;20220;-55
2022/07/31 05:48:04;;;;;;;376.40;187.47;;;;;;;;;;5001295;28;20671;-55
2022/07/31 05:50:30;;;;;;;356.33;170.53;;;;;;;;;;4999559;28;20224;-55
2022/07/31 05:52:56;;;;;;;470.83;211.10;;;;;;;;;;4984267;28;20186;-55
2022/07/31 05:55:22;;;;;;;474.20;215.17;;;;;;;;;;4986996;28;20216;-55
2022/07/31 05:57:48;;;;;;;348.47;175.43;;;;;;;;;;5003759;28;20273;-55
2022/07/31 06:00:15;;;;;;;350.03;174.67;;;;;;;;;;5003307;28;20279;-54
2022/07/31 06:02:41;;;;;;;350.27;176.30;;;;;;;;;;5001270;28;20241;-56
2022/07/31 06:05:07;;;;;;;365.03;189.33;;;;;;;;;;4992436;28;20680;-55
2022/07/31 06:07:33;;;;;;;358.07;184.43;;;;;;;;;;5000732;28;20205;-55
2022/07/31 06:09:59;;;;;;;370.67;190.77;;;;;;;;;;5001474;28;20949;-55
2022/07/31 06:12:25;;;;;;;381.77;198.70;;;;;;;;;;5005551;28;20232;-55
2022/07/31 06:14:51;;;;;;;379.17;194.53;;;;;;;;;;4999587;28;20228;-55
2022/07/31 06:17:17;;;;;;;387.67;199.53;;;;;;;;;;5004932;28;20701;-54
2022/07/31 06:19:43;;;;;;;375.60;194.00;;;;;;;;;;5003814;28;20188;-55
2022/07/31 06:22:09;;;;;;;351.20;183.73;;;;;;;;;;5000447;28;20224;-55
2022/07/31 06:24:36;;;;;;;411.27;215.83;;;;;;;;;;5007068;28;20247;-55
2022/07/31 06:27:02;;;;;;;344.20;177.45;;;;;;;;;;4996175;28;20228;-55
2022/07/31 06:29:29;;;;;;;367.90;191.87;;;;;;;;;;5001825;28;20283;-55
2022/07/31 06:31:55;;;;;;;436.00;227.73;;;;;;;;;;4999252;28;20197;-55
2022/07/31 06:34:22;;;;;;;371.63;193.80;;;;;;;;;;5001381;28;20224;-55
2022/07/31 06:36:48;;;;;;;363.33;191.37;;;;;;;;;;5001525;28;20373;-54
2022/07/31 06:39:14;;;;;;;391.90;206.37;;;;;;;;;;5000009;28;20697;-55
2022/07/31 06:41:43;;;;;;;397.88;207.05;;;;;;;;;;5001810;28;20220;-55
2022/07/31 06:44:09;;;;;;;360.25;191.07;;;;;;;;;;4996950;28;20193;-54
2022/07/31 06:46:35;;;;;;;368.10;194.52;;;;;;;;;;5000942;28;20666;-54
2022/07/31 06:49:01;;;;;;;338.10;180.33;;;;;;;;;;4999071;28;20287;-55
2022/07/31 06:51:27;;;;;;;370.08;194.50;;;;;;;;;;5001491;28;20244;-55
2022/07/31 06:53:53;;;;;;;343.33;178.30;;;;;;;;;;5000851;28;20704;-54
2022/07/31 06:56:19;;;;;;;357.75;187.38;;;;;;;;;;4999929;28;20221;-54
2022/07/31 06:58:45;;;;;;;357.23;186.33;;;;;;;;;;4998761;28;20186;-54
2022/07/31 07:01:11;;;;;;;371.35;194.88;;;;;;;;;;5001353;28;20581;-54
2022/07/31 07:03:36;;;;;;;339.77;181.57;;;;;;;;;;5003690;28;20224;-54
2022/07/31 07:06:02;;;;;;;341.27;181.88;;;;;;;;;;4998272;28;20385;-54
2022/07/31 07:08:29;;;;;;;353.77;190.88;;;;;;;;;;5004210;28;20227;-54
2022/07/31 07:10:54;;;;;;;348.02;184.02;;;;;;;;;;5000785;28;20512;-54
2022/07/31 07:13:21;;;;;;;369.13;194.13;;;;;;;;;;4997637;28;20246;-53
2022/07/31 07:15:47;;;;;;;375.80;195.55;;;;;;;;;;4996325;28;20233;-54
2022/07/31 07:18:13;;;;;;;403.40;212.13;;;;;;;;;;4994818;28;20661;-54
2022/07/31 07:20:39;;;;;;;492.17;250.38;;;;;;;;;;4994234;28;20783;-54
2022/07/31 07:23:05;;;;;;;400.40;212.57;;;;;;;;;;4992068;28;20185;-54
2022/07/31 07:25:31;;;;;;;466.50;243.82;;;;;;;;;;4993250;28;20185;-54
2022/07/31 07:27:58;;;;;;;341.05;185.63;;;;;;;;;;5005433;28;20228;-54
2022/07/31 07:30:27;;;;;;;371.23;193.70;;;;;;;;;;5002909;28;20232;-54
2022/07/31 07:32:53;;;;;;;373.85;203.65;;;;;;;;;;4994991;28;20221;-54
2022/07/31 07:35:19;;;;;;;388.33;214.75;;;;;;;;;;4996170;28;20680;-54
2022/07/31 07:37:45;;;;;;;434.50;241.73;;;;;;;;;;4979959;28;20201;-56
2022/07/31 07:40:11;;;;;;;400.70;226.43;;;;;;;;;;4995446;28;20225;-52
2022/07/31 07:42:37;;;;;;;362.38;199.15;;;;;;;;;;4997734;28;20666;-51
2022/07/31 07:45:03;;;;;;;390.35;222.10;;;;;;;;;;4993952;28;20229;-51
2022/07/31 07:47:29;;;;;;;383.38;218.73;;;;;;;;;;4995941;28;20229;-52
2022/07/31 07:49:54;;;;;;;395.17;225.80;;;;;;;;;;4993243;28;20204;-52
2022/07/31 07:52:20;;;;;;;384.60;218.30;;;;;;;;;;4989136;28;20252;-51
2022/07/31 07:54:47;;;;;;;405.27;233.70;;;;;;;;;;4992616;28;20294;-52
2022/07/31 07:57:16;;;;;;;363.00;211.30;;;;;;;;;;4994888;28;20727;-51
2022/07/31 07:59:42;;;;;;;445.15;248.38;;;;;;;;;;4991638;28;20752;-52
2022/07/31 08:02:09;;;;;;;402.10;230.13;;;;;;;;;;4990555;28;20558;-52
2022/07/31 08:04:35;;;;;;;403.20;227.35;;;;;;;;;;4996001;28;20193;-53
2022/07/31 08:07:02;;;;;;;372.85;213.82;;;;;;;;;;4990821;28;20228;-52
2022/07/31 08:09:28;;;;;;;379.02;211.70;;;;;;;;;;5004009;28;20225;-52
2022/07/31 08:11:54;;;;;;;347.20;206.57;;;;;;;;;;5009113;28;20376;-51
2022/07/31 08:14:20;;;;;;;374.70;218.45;;;;;;;;;;5002425;28;20222;-51
2022/07/31 08:16:46;;;;;;;390.30;215.60;;;;;;;;;;5004213;28;20213;-53
2022/07/31 08:19:12;;;;;;;356.85;205.70;;;;;;;;;;5001044;28;20287;-51
2022/07/31 08:21:38;;;;;;;359.30;209.90;;;;;;;;;;5001280;28;20224;-52
2022/07/31 08:24:05;;;;;;;402.20;231.10;;;;;;;;;;5003666;28;20248;-52
2022/07/31 08:27:22;;;;;;;358.00;210.60;;;;;;;;;;5001960;28;20228;-52
2022/07/31 08:29:17;;;;;;;378.13;222.48;;;;;;;;;;5007563;28;20744;-52
2022/07/31 08:31:43;;;;;;;371.05;225.25;;;;;;;;;;5000854;28;20185;-52
2022/07/31 08:34:09;;;;;;;363.83;221.98;;;;;;;;;;5007102;28;20232;-52
2022/07/31 08:36:36;;;;;;;357.65;210.93;;;;;;;;;;5002785;28;20233;-51
2022/07/31 08:39:02;;;;;;;336.80;198.50;;;;;;;;;;5006797;28;20240;-53
2022/07/31 08:41:28;;;;;;;372.92;216.27;;;;;;;;;;5002316;28;20236;-52
2022/07/31 08:43:55;;;;;;;351.83;206.48;;;;;;;;;;5000634;28;20545;-51
2022/07/31 08:46:21;;;;;;;342.92;204.35;;;;;;;;;;5004290;28;20252;-51
2022/07/31 08:48:52;;;;;;;348.88;221.80;;;;;;;;;;5035964;23;20247;-49
2022/07/31 08:51:18;;;;;;;411.35;251.02;;;;;;;;;;5036240;28;20276;-49
2022/07/31 08:53:44;;;;;;;441.45;263.23;;;;;;;;;;5037466;28;20231;-49
2022/07/31 08:56:11;;;;;;;378.58;231.98;;;;;;;;;;5040069;28;20708;-49
2022/07/31 08:58:37;;;;;;;386.73;234.70;;;;;;;;;;5041883;28;20656;-49
2022/07/31 09:01:02;;;;;;;382.05;238.10;;;;;;;;;;5034739;28;20218;-48
2022/07/31 09:03:28;;;;;;;389.75;240.90;;;;;;;;;;5046818;28;20529;-49
2022/07/31 09:05:54;;;;;;;408.90;246.73;;;;;;;;;;5038166;28;20215;-49
2022/07/31 09:08:20;;;;;;;367.95;229.38;;;;;;;;;;5042218;28;20219;-49
2022/07/31 09:10:47;;;;;;;378.42;244.05;;;;;;;;;;5039972;28;20284;-49
2022/07/31 09:13:14;;;;;;;411.38;255.18;;;;;;;;;;5037104;28;20212;-49
2022/07/31 09:15:40;;;;;;;455.73;274.30;;;;;;;;;;5041245;28;20220;-49
2022/07/31 09:18:15;;;;;;;389.33;241.65;;;;;;;;;;5040155;28;20234;-48
2022/07/31 09:20:52;;;;;;;401.95;249.45;;;;;;;;;;5033015;28;20227;-48
2022/07/31 09:23:18;;;;;;;407.10;256.10;;;;;;;;;;5044907;28;20235;-49
2022/07/31 09:25:51;;;;;;;459.50;274.17;;;;;;;;;;5030107;28;20219;-48
2022/07/31 09:28:16;;;;;;;431.42;266.23;;;;;;;;;;5035448;28;20223;-48
2022/07/31 09:30:52;;;;;;;404.20;248.70;;;;;;;;;;5037079;28;20686;-48
2022/07/31 09:33:20;;;;;;;431.37;306.73;;;;;;;;;;5038398;28;20909;-48
2022/07/31 09:35:50;;;;;;;458.45;292.65;;;;;;;;;;5033126;28;20278;-49
2022/07/31 09:38:16;;;;;;;440.35;280.15;;;;;;;;;;5034549;28;20224;-49
2022/07/31 09:40:42;;;;;;;400.95;268.92;;;;;;;;;;5031810;28;20180;-49
2022/07/31 09:43:18;;;;;;;399.88;269.67;;;;;;;;;;5040949;28;20220;-50
2022/07/31 09:45:48;;;;;;;447.08;291.35;;;;;;;;;;5033158;28;20220;-51
2022/07/31 09:48:14;;;;;;;417.65;274.05;;;;;;;;;;5037583;28;20231;-50
2022/07/31 09:50:58;;;;;;;372.20;259.15;;;;;;;;;;5037130;28;20531;-51
2022/07/31 09:53:24;;;;;;;423.10;282.55;;;;;;;;;;5026442;28;20729;-51
2022/07/31 09:55:51;;;;;;;378.35;261.38;;;;;;;;;;5038575;28;20217;-51
2022/07/31 09:58:17;;;;;;;405.80;275.52;;;;;;;;;;5024448;28;20874;-51
2022/07/31 10:00:43;;;;;;;367.80;253.30;;;;;;;;;;5038927;28;20226;-51
2022/07/31 10:03:10;;;;;;;352.67;254.52;;;;;;;;;;5035070;28;20215;-51
2022/07/31 10:05:36;;;;;;;453.52;300.58;;;;;;;;;;5039676;28;20303;-51
2022/07/31 10:08:03;;;;;;;397.73;278.67;;;;;;;;;;5035860;28;20273;-51
2022/07/31 10:10:30;;;;;;;390.90;271.67;;;;;;;;;;5046102;28;20240;-51
2022/07/31 10:12:59;;;;;;;398.45;278.58;;;;;;;;;;5039233;28;20223;-51
2022/07/31 10:15:25;;;;;;;387.70;284.05;;;;;;;;;;5042284;28;20216;-51
2022/07/31 10:17:52;;;;;;;406.08;300.27;;;;;;;;;;5035045;28;20537;-51
2022/07/31 10:20:20;;;;;;;444.05;302.75;;;;;;;;;;5040292;28;20282;-51
2022/07/31 10:22:47;;;;;;;398.15;291.92;;;;;;;;;;5041720;28;20172;-51
2022/07/31 10:25:27;;;;;;;462.77;316.42;;;;;;;;;;5037185;28;20228;-51
2022/07/31 10:27:55;;;;;;;396.70;295.08;;;;;;;;;;5035514;28;20219;-51
2022/07/31 10:30:22;;;;;;;409.30;300.63;;;;;;;;;;5041723;28;20374;-51
2022/07/31 10:32:49;;;;;;;406.65;300.65;;;;;;;;;;5037119;28;20216;-52
2022/07/31 10:35:16;;;;;;;432.80;305.67;;;;;;;;;;5038105;28;20630;-51
2022/07/31 10:37:53;;;;;;;431.50;306.63;;;;;;;;;;5036805;28;20204;-50
2022/07/31 10:40:35;;;;;;;399.70;288.42;;;;;;;;;;5042308;28;20211;-50
2022/07/31 10:43:23;;;;;;;388.23;287.38;;;;;;;;;;5042019;28;20554;-51
2022/07/31 10:45:50;;;;;;;402.42;282.98;;;;;;;;;;5039237;28;20211;-51
2022/07/31 10:48:16;;;;;;;412.80;302.90;;;;;;;;;;5031526;28;20231;-51
2022/07/31 10:50:42;;;;;;;408.20;299.45;;;;;;;;;;5038348;28;20379;-51
2022/07/31 10:53:12;;;;;;;394.63;287.23;;;;;;;;;;5042504;28;20179;-51
2022/07/31 10:55:38;;;;;;;468.00;320.10;;;;;;;;;;5035684;28;20406;-51
2022/07/31 10:58:08;;;;;;;385.15;275.70;;;;;;;;;;5036765;28;20336;-51
2022/07/31 11:00:34;;;;;;;402.65;292.02;;;;;;;;;;5038477;28;20215;-51
2022/07/31 11:03:11;;;;;;;409.05;291.92;;;;;;;;;;5037725;28;20224;-51
2022/07/31 11:05:37;;;;;;;390.63;284.23;;;;;;;;;;5031686;28;20274;-51
2022/07/31 11:08:06;;;;;;;391.83;279.17;;;;;;;;;;5046977;28;20200;-51
2022/07/31 11:10:32;;;;;;;414.90;297.60;;;;;;;;;;5034501;28;20508;-51
2022/07/31 11:13:03;;;;;;;420.40;306.85;;;;;;;;;;5038192;28;20570;-51
2022/07/31 11:15:29;;;;;;;433.67;299.73;;;;;;;;;;5035625;28;20219;-51
2022/07/31 11:17:55;;;;;;;393.13;275.15;;;;;;;;;;5033451;28;20273;-51
2022/07/31 11:20:21;;;;;;;406.25;288.45;;;;;;;;;;5040710;28;20715;-51
2022/07/31 11:22:57;;;;;;;421.60;296.17;;;;;;;;;;5033348;28;20195;-51
2022/07/31 11:25:24;;;;;;;398.98;287.02;;;;;;;;;;5037232;28;20216;-51
2022/07/31 11:27:50;;;;;;;420.05;298.33;;;;;;;;;;5033957;28;20215;-51
2022/07/31 11:30:16;;;;;;;431.30;301.58;;;;;;;;;;5040726;28;20523;-51
2022/07/31 11:32:52;;;;;;;375.35;268.35;;;;;;;;;;5047217;28;20771;-51
2022/07/31 11:35:23;;;;;;;425.20;300.65;;;;;;;;;;5032151;28;20211;-51
2022/07/31 11:37:50;;;;;;;410.02;289.25;;;;;;;;;;5038123;28;20528;-51
2022/07/31 11:40:16;;;;;;;407.58;287.38;;;;;;;;;;5042116;28;20296;-51
2022/07/31 11:42:44;;;;;;;400.65;285.95;;;;;;;;;;5034302;28;20219;-51
2022/07/31 11:45:11;;;;;;;388.35;281.23;;;;;;;;;;5050726;28;20553;-51
2022/07/31 11:47:38;;;;;;;435.95;312.05;;;;;;;;;;5038275;28;20231;-51
2022/07/31 11:50:04;;;;;;;398.25;287.40;;;;;;;;;;5041282;28;20757;-51
2022/07/31 11:52:30;;;;;;;407.40;290.83;;;;;;;;;;5043964;28;20496;-52
2022/07/31 11:55:07;;;;;;;394.20;291.23;;;;;;;;;;5047237;28;20214;-51
2022/07/31 11:57:33;;;;;;;444.48;315.45;;;;;;;;;;5048279;28;20215;-51
2022/07/31 12:00:06;;;;;;;401.67;292.13;;;;;;;;;;5046043;28;20222;-52
2022/07/31 12:02:32;;;;;;;376.23;286.60;;;;;;;;;;5048422;28;20222;-51
2022/07/31 12:05:01;;;;;;;410.90;315.17;;;;;;;;;;5037143;28;20527;-51
2022/07/31 12:07:28;;;;;;;421.08;305.67;;;;;;;;;;5044633;28;20208;-51
2022/07/31 12:09:54;;;;;;;440.17;316.38;;;;;;;;;;5050337;28;20705;-51
2022/07/31 12:12:21;;;;;;;419.30;306.63;;;;;;;;;;5049867;28;20231;-51
2022/07/31 12:14:46;;;;;;;393.05;295.73;;;;;;;;;;5046072;28;20231;-51
2022/07/31 12:17:19;;;;;;;411.23;309.27;;;;;;;;;;5045096;28;21251;-51
2022/07/31 12:19:45;;;;;;;415.70;312.58;;;;;;;;;;5043185;28;20179;-51
2022/07/31 12:22:14;;;;;;;407.63;307.77;;;;;;;;;;5040792;28;20544;-51
2022/07/31 12:24:40;;;;;;;439.40;344.65;;;;;;;;;;5045852;28;20219;-51
2022/07/31 12:27:06;;;;;;;404.38;327.55;;;;;;;;;;5051788;28;20294;-51
2022/07/31 12:29:33;;;;;;;384.55;312.20;;;;;;;;;;5043964;28;20223;-51
2022/07/31 12:31:59;;;;;;;432.92;330.40;;;;;;;;;;5037044;28;20242;-51
2022/07/31 12:34:29;;;;;;;392.65;308.42;;;;;;;;;;5044948;28;20231;-51
2022/07/31 12:37:06;;;;;;;371.13;294.80;;;;;;;;;;5029562;28;20235;-51
2022/07/31 12:39:34;;;;;;;423.05;324.52;;;;;;;;;;5045620;28;20230;-51
2022/07/31 12:42:00;;;;;;;396.55;308.77;;;;;;;;;;5047312;28;20234;-51
2022/07/31 12:44:27;;;;;;;446.85;337.13;;;;;;;;;;5043698;28;20288;-52
2022/07/31 12:46:53;;;;;;;423.88;325.38;;;;;;;;;;5043790;28;20223;-51
2022/07/31 12:49:19;;;;;;;402.52;316.55;;;;;;;;;;5042327;28;20195;-52
2022/07/31 12:51:45;;;;;;;376.60;308.27;;;;;;;;;;5041392;28;20330;-51
2022/07/31 12:54:12;;;;;;;397.70;321.30;;;;;;;;;;5049652;28;20293;-51
2022/07/31 12:56:39;;;;;;;408.88;333.58;;;;;;;;;;5044084;28;20257;-51
2022/07/31 12:59:06;;;;;;;389.75;330.55;;;;;;;;;;5047649;28;20192;-52
2022/07/31 13:01:31;;;;;;;417.23;328.52;;;;;;;;;;5035931;28;20186;-51
2022/07/31 13:03:58;;;;;;;414.55;331.60;;;;;;;;;;5040382;28;20220;-52
2022/07/31 13:06:27;;;;;;;431.75;341.65;;;;;;;;;;5047908;28;20216;-52
2022/07/31 13:08:54;;;;;;;589.72;426.10;;;;;;;;;;5026101;28;20392;-52
2022/07/31 13:11:20;;;;;;;479.83;364.92;;;;;;;;;;5030493;28;20219;-52
2022/07/31 13:13:45;;;;;;;439.05;353.90;;;;;;;;;;5030987;28;20194;-51
2022/07/31 13:16:12;;;;;;;398.33;343.77;;;;;;;;;;5040691;28;20649;-51
2022/07/31 13:18:38;;;;;;;407.98;350.10;;;;;;;;;;5041655;28;20227;-51
2022/07/31 13:21:05;;;;;;;405.83;350.35;;;;;;;;;;5036274;28;20223;-51
2022/07/31 13:23:31;;;;;;;425.77;359.55;;;;;;;;;;5044207;28;20321;-51
2022/07/31 13:25:57;;;;;;;419.52;369.10;;;;;;;;;;5038068;28;20536;-51
2022/07/31 13:28:23;;;;;;;403.13;359.75;;;;;;;;;;5052482;28;20250;-51
2022/07/31 13:30:49;;;;;;;429.65;382.35;;;;;;;;;;5044267;28;20567;-51
2022/07/31 13:33:15;;;;;;;448.48;387.35;;;;;;;;;;5038550;28;20643;-51
2022/07/31 13:35:41;;;;;;;481.10;400.15;;;;;;;;;;5043274;28;20253;-51
2022/07/31 13:38:07;;;;;;;404.60;358.35;;;;;;;;;;5038316;28;20335;-51
2022/07/31 13:43:18;;;;;;;472.58;403.08;;;;;;;;;;5040260;28;20268;-51
2022/07/31 13:45:45;;;;;;;447.63;387.42;;;;;;;;;;5036496;28;20235;-51
2022/07/31 13:48:10;;;;;;;409.73;359.67;;;;;;;;;;5040587;28;20685;-51
2022/07/31 13:50:40;;;;;;;422.25;366.42;;;;;;;;;;5045787;28;20235;-51
2022/07/31 13:53:06;;;;;;;410.77;360.17;;;;;;;;;;5038579;28;20218;-51
2022/07/31 13:55:32;;;;;;;440.70;379.10;;;;;;;;;;5046329;28;20183;-51